createdAt,value
2023-02-09T00:01:55.587Z,58.50
2023-02-09T00:04:57.127Z,58.62
2023-02-09T00:07:58.592Z,58.67
2023-02-09T00:11:00.126Z,58.62
2023-02-09T00:14:01.606Z,58.56
2023-02-09T00:17:04.256Z,58.58
2023-02-09T00:20:07.531Z,58.47
2023-02-09T00:23:09.018Z,58.58
2023-02-09T00:26:11.658Z,58.65
2023-02-09T00:29:21.489Z,58.66
2023-02-09T00:32:24.552Z,58.74
2023-02-09T00:35:26.047Z,58.87
2023-02-09T00:38:28.817Z,58.78
2023-02-09T00:41:49.163Z,58.83
2023-02-09T00:44:50.733Z,58.80
2023-02-09T00:47:52.430Z,58.84
2023-02-09T00:50:54.040Z,58.82
2023-02-09T00:53:55.645Z,58.72
2023-02-09T00:57:04.939Z,58.63
2023-02-09T01:00:09.681Z,58.60
2023-02-09T01:03:11.557Z,58.75
2023-02-09T01:06:13.036Z,58.83
2023-02-09T01:09:14.609Z,58.93
2023-02-09T01:12:16.194Z,59.00
2023-02-09T01:15:17.828Z,58.91
2023-02-09T01:18:19.352Z,59.11
2023-02-09T01:21:23.056Z,59.01
2023-02-09T01:24:24.595Z,59.03
2023-02-09T01:27:26.068Z,58.93
2023-02-09T01:30:28.036Z,58.87
2023-02-09T01:33:30.637Z,58.84
2023-02-09T01:36:32.748Z,58.75
2023-02-09T01:39:34.313Z,58.78
2023-02-09T01:42:36.078Z,58.79
2023-02-09T01:45:48.576Z,58.82
2023-02-09T01:48:54.070Z,58.80
2023-02-09T01:52:10.303Z,58.96
2023-02-09T01:55:19.835Z,58.80
2023-02-09T01:58:25.352Z,58.73
2023-02-09T02:01:27.254Z,58.88
2023-02-09T02:04:30.706Z,58.94
2023-02-09T02:07:46.747Z,58.86
2023-02-09T02:10:48.471Z,58.90
2023-02-09T02:13:50.194Z,58.91
2023-02-09T02:17:06.026Z,58.88
2023-02-09T02:20:42.756Z,58.95
2023-02-09T02:23:44.503Z,59.06
2023-02-09T02:26:56.486Z,59.00
2023-02-09T02:30:16.457Z,59.09
2023-02-09T02:33:39.065Z,59.16
2023-02-09T02:36:40.489Z,59.40
2023-02-09T02:39:57.525Z,59.15
2023-02-09T02:43:19.840Z,59.12
2023-02-09T02:46:44.607Z,59.13
2023-02-09T02:49:53.212Z,59.13
2023-02-09T02:52:57.777Z,59.10
2023-02-09T02:56:06.236Z,59.15
2023-02-09T02:59:28.599Z,59.11
2023-02-09T03:02:35.019Z,59.02
2023-02-09T03:05:37.447Z,59.20
2023-02-09T03:08:51.000Z,59.24
2023-02-09T03:11:57.451Z,59.31
2023-02-09T03:15:05.043Z,59.24
2023-02-09T03:18:34.664Z,59.28
2023-02-09T03:21:57.428Z,59.32
2023-02-09T03:25:02.144Z,59.21
2023-02-09T03:28:19.625Z,59.14
2023-02-09T03:31:22.344Z,59.04
2023-02-09T03:34:23.897Z,59.12
2023-02-09T03:37:25.491Z,59.14
2023-02-09T03:40:27.086Z,59.20
2023-02-09T03:43:47.311Z,59.29
2023-02-09T03:46:48.901Z,58.86
2023-02-09T03:49:50.430Z,59.23
2023-02-09T03:52:51.941Z,59.21
2023-02-09T03:55:53.424Z,59.17
2023-02-09T03:58:54.956Z,59.02
2023-02-09T04:01:58.597Z,59.07
2023-02-09T04:05:00.066Z,59.13
2023-02-09T04:08:01.584Z,59.16
2023-02-09T04:11:03.281Z,59.21
2023-02-09T04:14:05.178Z,59.18
2023-02-09T04:17:06.716Z,59.32
2023-02-09T04:20:08.614Z,59.29
2023-02-09T04:23:10.124Z,59.20
2023-02-09T04:26:12.059Z,59.18
2023-02-09T04:29:13.563Z,59.19
2023-02-09T04:32:15.058Z,58.99
2023-02-09T04:35:16.636Z,59.21
2023-02-09T04:38:20.483Z,59.17
2023-02-09T04:41:22.219Z,59.06
2023-02-09T04:44:23.677Z,59.06
2023-02-09T04:47:25.174Z,59.03
2023-02-09T04:50:26.620Z,59.01
2023-02-09T04:53:29.523Z,59.02
2023-02-09T04:56:30.973Z,58.86
2023-02-09T04:59:35.074Z,58.89
2023-02-09T05:02:37.795Z,58.80
2023-02-09T05:05:40.570Z,58.69
2023-02-09T05:08:42.129Z,58.75
2023-02-09T05:11:43.665Z,58.73
2023-02-09T05:14:45.200Z,58.61
2023-02-09T05:17:46.730Z,58.45
2023-02-09T05:20:48.965Z,58.49
2023-02-09T05:23:50.512Z,58.35
2023-02-09T05:26:51.987Z,58.59
2023-02-09T05:29:53.554Z,58.29
2023-02-09T05:32:55.477Z,58.17
2023-02-09T05:35:57.033Z,58.20
2023-02-09T05:38:58.548Z,58.19
2023-02-09T05:42:15.108Z,58.23
2023-02-09T05:45:16.582Z,58.28
2023-02-09T05:48:18.039Z,58.22
2023-02-09T05:51:19.502Z,58.53
2023-02-09T05:54:21.289Z,58.26
2023-02-09T05:57:22.899Z,58.32
2023-02-09T06:00:25.050Z,58.41
2023-02-09T06:03:26.707Z,58.30
2023-02-09T06:06:28.260Z,58.35
2023-02-09T06:09:29.791Z,58.37
2023-02-09T06:12:31.259Z,58.40
2023-02-09T06:15:32.858Z,58.36
2023-02-09T06:18:34.448Z,58.46
2023-02-09T06:21:35.925Z,58.47
2023-02-09T06:24:37.424Z,58.49
2023-02-09T06:27:38.917Z,58.49
2023-02-09T06:30:40.473Z,58.46
2023-02-09T06:33:42.098Z,58.40
2023-02-09T06:36:43.576Z,58.43
2023-02-09T06:39:45.051Z,58.50
2023-02-09T06:42:46.640Z,58.33
2023-02-09T06:45:48.233Z,58.27
2023-02-09T06:48:49.848Z,58.19
2023-02-09T06:51:51.515Z,58.25
2023-02-09T06:54:53.067Z,57.88
2023-02-09T06:57:55.367Z,58.05
2023-02-09T07:01:02.291Z,57.98
2023-02-09T07:04:03.901Z,57.96
2023-02-09T07:07:05.361Z,57.82
2023-02-09T07:10:08.197Z,57.78
2023-02-09T07:13:09.680Z,57.65
2023-02-09T07:16:15.952Z,57.77
2023-02-09T07:19:17.482Z,58.17
2023-02-09T07:22:18.986Z,57.73
2023-02-09T07:25:20.497Z,57.85
2023-02-09T07:28:22.437Z,57.76
2023-02-09T07:31:24.247Z,57.95
2023-02-09T07:34:25.875Z,57.59
2023-02-09T07:37:27.399Z,57.88
2023-02-09T07:40:28.950Z,57.63
2023-02-09T07:43:30.717Z,57.71
2023-02-09T07:46:32.778Z,57.71
2023-02-09T07:49:35.247Z,57.68
2023-02-09T07:52:36.691Z,57.63
2023-02-09T07:55:39.887Z,57.50
2023-02-09T07:58:41.390Z,57.23
2023-02-09T08:01:42.893Z,57.63
2023-02-09T08:04:44.874Z,57.58
2023-02-09T08:07:46.470Z,57.49
2023-02-09T08:10:48.171Z,57.91
2023-02-09T08:13:51.887Z,57.46
2023-02-09T08:17:18.417Z,57.52
2023-02-09T08:20:25.462Z,57.42
2023-02-09T08:23:31.000Z,57.51
2023-02-09T08:26:32.661Z,57.66
2023-02-09T08:29:34.206Z,57.42
2023-02-09T08:32:36.219Z,57.59
2023-02-09T08:35:37.658Z,57.63
2023-02-09T08:38:39.760Z,57.55
2023-02-09T08:41:41.284Z,57.55
2023-02-09T08:44:42.719Z,57.52
2023-02-09T08:47:44.166Z,57.77
2023-02-09T08:50:45.628Z,57.79
2023-02-09T08:53:52.287Z,58.08
2023-02-09T08:56:54.172Z,58.46
2023-02-09T08:59:55.598Z,58.61
2023-02-09T09:02:57.064Z,58.83
2023-02-09T09:06:03.706Z,58.86
2023-02-09T09:09:05.066Z,58.90
2023-02-09T09:12:06.514Z,58.78
2023-02-09T09:15:08.325Z,58.79
2023-02-09T09:18:10.106Z,58.69
2023-02-09T09:21:13.154Z,58.64
2023-02-09T09:24:16.074Z,58.49
2023-02-09T09:27:17.542Z,58.48
2023-02-09T09:30:19.185Z,58.42
2023-02-09T09:33:20.855Z,58.32
2023-02-09T09:36:22.528Z,58.41
2023-02-09T09:39:25.604Z,58.38
2023-02-09T09:42:36.134Z,58.43
2023-02-09T09:45:38.606Z,58.47
2023-02-09T09:48:50.790Z,58.60
2023-02-09T09:52:13.281Z,58.37
2023-02-09T09:55:23.351Z,58.64
2023-02-09T09:58:25.336Z,58.66
2023-02-09T10:01:28.866Z,58.58
2023-02-09T10:04:30.480Z,58.54
2023-02-09T10:07:34.130Z,58.59
2023-02-09T10:10:51.155Z,58.57
2023-02-09T10:13:53.786Z,58.49
2023-02-09T10:16:55.363Z,58.33
2023-02-09T10:20:05.595Z,58.19
2023-02-09T10:23:15.044Z,58.25
2023-02-09T10:26:25.809Z,58.14
2023-02-09T10:29:27.356Z,58.13
2023-02-09T10:32:43.207Z,58.17
2023-02-09T10:35:51.189Z,58.07
2023-02-09T10:39:03.230Z,58.07
2023-02-09T10:42:24.382Z,57.95
2023-02-09T10:45:37.581Z,57.81
2023-02-09T10:48:42.089Z,57.68
2023-02-09T10:51:43.574Z,57.71
2023-02-09T10:54:51.211Z,57.65
2023-02-09T10:58:12.615Z,57.46
2023-02-09T11:01:22.634Z,57.55
2023-02-09T11:04:26.975Z,57.59
2023-02-09T11:07:38.470Z,57.51
2023-02-09T11:10:45.277Z,57.39
2023-02-09T11:13:46.844Z,57.50
2023-02-09T11:17:26.812Z,57.34
2023-02-09T11:20:35.904Z,57.46
2023-02-09T11:23:37.358Z,57.64
2023-02-09T11:26:58.310Z,57.50
2023-02-09T11:30:22.102Z,57.50
2023-02-09T11:33:39.675Z,57.46
2023-02-09T11:36:53.324Z,57.50
2023-02-09T11:40:51.863Z,57.38
2023-02-09T11:43:55.753Z,57.32
2023-02-09T11:47:07.002Z,57.36
2023-02-09T11:50:15.375Z,57.35
2023-02-09T11:53:26.081Z,57.42
2023-02-09T11:56:28.723Z,57.29
2023-02-09T11:59:38.959Z,57.14
2023-02-09T12:02:57.183Z,57.12
2023-02-09T12:05:59.655Z,57.19
2023-02-09T12:09:08.362Z,57.24
2023-02-09T12:12:25.845Z,57.22
2023-02-09T12:15:50.498Z,57.22
2023-02-09T12:18:55.323Z,57.24
2023-02-09T12:21:56.873Z,57.19
2023-02-09T12:25:37.153Z,57.09
2023-02-09T12:28:40.574Z,57.12
2023-02-09T12:32:06.057Z,57.03
2023-02-09T12:35:37.338Z,57.04
2023-02-09T12:38:55.468Z,57.13
2023-02-09T12:42:00.938Z,57.17
2023-02-09T12:45:02.425Z,57.16
2023-02-09T12:48:09.829Z,57.40
2023-02-09T12:51:42.037Z,57.59
2023-02-09T12:54:52.630Z,57.67
2023-02-09T12:57:54.229Z,57.80
2023-02-09T13:00:56.604Z,57.83
2023-02-09T13:04:03.061Z,57.79
2023-02-09T13:07:11.829Z,57.91
2023-02-09T13:10:27.947Z,57.84
2023-02-09T13:13:33.038Z,57.77
2023-02-09T13:17:00.991Z,57.78
2023-02-09T13:20:45.659Z,57.78
2023-02-09T13:24:10.928Z,57.64
2023-02-09T13:27:23.579Z,57.86
2023-02-09T13:30:32.413Z,57.98
2023-02-09T13:33:52.481Z,58.25
2023-02-09T13:37:24.679Z,58.55
2023-02-09T13:40:35.024Z,58.81
2023-02-09T13:43:40.206Z,58.94
2023-02-09T13:46:57.626Z,59.15
2023-02-09T13:50:12.847Z,59.31
2023-02-09T13:53:18.048Z,59.44
2023-02-09T13:56:19.594Z,59.37
2023-02-09T13:59:21.313Z,59.38
2023-02-09T14:02:26.767Z,59.27
2023-02-09T14:05:48.748Z,59.16
2023-02-09T14:08:52.619Z,59.15
2023-02-09T14:12:01.635Z,59.14
2023-02-09T14:15:22.256Z,59.06
2023-02-09T14:18:27.891Z,59.08
2023-02-09T14:21:37.344Z,59.18
2023-02-09T14:24:44.759Z,59.32
2023-02-09T14:27:47.876Z,59.61
2023-02-09T14:30:50.492Z,59.72
2023-02-09T14:33:55.043Z,59.75
2023-02-09T14:37:04.258Z,59.76
2023-02-09T14:40:06.133Z,59.77
2023-02-09T14:43:10.760Z,59.91
2023-02-09T14:46:12.294Z,59.73
2023-02-09T14:49:13.902Z,59.66
2023-02-09T14:52:15.751Z,59.64
2023-02-09T14:55:21.020Z,59.54
2023-02-09T14:58:23.772Z,59.40
2023-02-09T15:01:25.315Z,59.26
2023-02-09T15:04:26.883Z,59.23
2023-02-09T15:07:37.473Z,58.98
2023-02-09T15:10:43.945Z,58.97
2023-02-09T15:13:46.028Z,58.86
2023-02-09T15:16:47.702Z,58.91
2023-02-09T15:19:49.320Z,58.62
2023-02-09T15:22:52.046Z,58.61
2023-02-09T15:25:53.538Z,58.39
2023-02-09T15:28:55.181Z,58.52
2023-02-09T15:31:56.670Z,58.73
2023-02-09T15:34:58.213Z,58.93
2023-02-09T15:38:01.411Z,59.23
2023-02-09T15:41:21.484Z,59.40
2023-02-09T15:44:41.306Z,59.74
2023-02-09T15:47:48.474Z,59.80
2023-02-09T15:50:50.729Z,60.03
2023-02-09T15:53:57.605Z,59.82
2023-02-09T15:57:01.030Z,60.07
2023-02-09T16:00:02.830Z,60.01
2023-02-09T16:03:14.549Z,60.27
2023-02-09T16:06:20.213Z,60.12
2023-02-09T16:09:28.873Z,60.25
2023-02-09T16:12:30.566Z,60.15
2023-02-09T16:15:32.056Z,60.17
2023-02-09T16:18:33.572Z,60.01
2023-02-09T16:21:35.694Z,60.06
2023-02-09T16:24:39.700Z,59.94
2023-02-09T16:27:41.204Z,60.12
2023-02-09T16:30:52.487Z,60.18
2023-02-09T16:33:54.012Z,60.15
2023-02-09T16:36:55.543Z,60.17
2023-02-09T16:39:58.350Z,60.25
2023-02-09T16:43:01.269Z,60.17
2023-02-09T16:46:04.626Z,60.15
2023-02-09T16:49:06.501Z,60.09
2023-02-09T16:52:21.855Z,60.07
2023-02-09T16:55:29.246Z,60.00
2023-02-09T16:58:31.158Z,60.14
2023-02-09T17:01:34.341Z,59.90
2023-02-09T17:04:37.736Z,59.54
2023-02-09T17:07:52.422Z,60.01
2023-02-09T17:10:56.304Z,60.10
2023-02-09T17:13:57.818Z,60.18
2023-02-09T17:16:59.458Z,60.23
2023-02-09T17:20:00.978Z,60.12
2023-02-09T17:23:02.495Z,60.21
2023-02-09T17:26:04.203Z,60.11
2023-02-09T17:29:06.085Z,60.28
2023-02-09T17:32:13.425Z,60.33
2023-02-09T17:35:15.902Z,60.35
2023-02-09T17:38:35.461Z,60.25
2023-02-09T17:41:44.536Z,60.35
2023-02-09T17:44:46.902Z,60.27
2023-02-09T17:47:56.768Z,60.37
2023-02-09T17:51:00.143Z,60.25
2023-02-09T17:54:02.798Z,60.14
2023-02-09T17:57:04.344Z,60.05
2023-02-09T18:00:06.293Z,59.92
2023-02-09T18:03:14.097Z,59.90
2023-02-09T18:06:19.638Z,59.76
2023-02-09T18:09:21.131Z,59.82
2023-02-09T18:12:26.389Z,59.84
2023-02-09T18:15:36.542Z,59.67
2023-02-09T18:18:38.496Z,59.49
2023-02-09T18:21:52.357Z,59.45
2023-02-09T18:24:59.563Z,59.59
2023-02-09T18:28:02.257Z,59.44
2023-02-09T18:31:06.277Z,59.52
2023-02-09T18:34:07.954Z,59.68
2023-02-09T18:37:09.423Z,59.73
2023-02-09T18:40:11.041Z,60.02
2023-02-09T18:43:14.549Z,60.22
2023-02-09T18:46:16.531Z,55.42
2023-02-09T18:49:18.066Z,52.61
2023-02-09T18:52:24.319Z,51.88
2023-02-09T18:55:30.803Z,51.50
2023-02-09T18:58:32.322Z,50.80
2023-02-09T19:01:34.731Z,50.08
2023-02-09T19:04:36.270Z,52.34
2023-02-09T19:07:37.775Z,53.43
2023-02-09T19:10:41.536Z,53.96
2023-02-09T19:13:43.480Z,54.79
2023-02-09T19:16:45.109Z,55.31
2023-02-09T19:19:47.936Z,55.77
2023-02-09T19:22:51.559Z,56.10
2023-02-09T19:26:05.881Z,56.37
2023-02-09T19:29:07.400Z,56.32
2023-02-09T19:32:10.094Z,56.51
2023-02-09T19:35:11.600Z,56.55
2023-02-09T19:38:13.053Z,56.70
2023-02-09T19:41:14.528Z,56.92
2023-02-09T19:44:16.068Z,56.68
2023-02-09T19:47:17.596Z,57.01
2023-02-09T19:50:19.189Z,57.16
2023-02-09T19:53:20.781Z,57.24
2023-02-09T19:56:23.498Z,57.61
2023-02-09T19:59:25.225Z,57.56
2023-02-09T20:02:26.879Z,57.60
2023-02-09T20:05:28.460Z,57.65
2023-02-09T20:08:30.148Z,57.62
2023-02-09T20:11:33.127Z,57.68
2023-02-09T20:14:34.639Z,57.68
2023-02-09T20:17:36.407Z,57.86
2023-02-09T20:20:41.649Z,57.97
2023-02-09T20:23:45.664Z,57.91
2023-02-09T20:26:48.077Z,57.99
2023-02-09T20:29:49.967Z,58.08
2023-02-09T20:32:51.583Z,58.28
2023-02-09T20:35:53.079Z,58.35
2023-02-09T20:38:54.766Z,58.44
2023-02-09T20:42:16.664Z,58.57
2023-02-09T20:45:36.579Z,58.61
2023-02-09T20:48:38.114Z,58.65
2023-02-09T20:51:39.942Z,58.77
2023-02-09T20:54:41.408Z,59.02
2023-02-09T20:57:43.094Z,58.80
2023-02-09T21:00:44.869Z,58.77
2023-02-09T21:03:46.476Z,58.75
2023-02-09T21:06:48.452Z,58.66
2023-02-09T21:09:49.969Z,58.55
2023-02-09T21:12:51.458Z,58.75
2023-02-09T21:15:53.027Z,58.75
2023-02-09T21:18:54.526Z,58.64
2023-02-09T21:21:56.582Z,58.33
2023-02-09T21:24:58.150Z,58.14
2023-02-09T21:27:59.712Z,57.92
2023-02-09T21:31:01.555Z,57.88
2023-02-09T21:34:04.231Z,57.64
2023-02-09T21:37:08.861Z,57.51
2023-02-09T21:40:12.227Z,57.52
2023-02-09T21:43:13.832Z,57.38
2023-02-09T21:46:18.728Z,57.23
2023-02-09T21:49:20.966Z,57.26
2023-02-09T21:52:22.518Z,57.43
2023-02-09T21:55:24.016Z,57.14
2023-02-09T21:58:25.544Z,57.11
2023-02-09T22:01:27.108Z,56.92
2023-02-09T22:04:28.699Z,56.82
2023-02-09T22:07:30.902Z,56.91
2023-02-09T22:10:32.397Z,56.80
2023-02-09T22:13:34.072Z,56.75
2023-02-09T22:16:35.582Z,56.72
2023-02-09T22:19:37.522Z,56.71
2023-02-09T22:22:39.756Z,56.66
2023-02-09T22:25:41.454Z,56.62
2023-02-09T22:28:43.327Z,56.83
2023-02-09T22:31:45.411Z,56.69
2023-02-09T22:34:46.937Z,56.70
2023-02-09T22:37:48.554Z,56.43
2023-02-09T22:40:50.024Z,56.53
2023-02-09T22:43:57.256Z,56.66
2023-02-09T22:46:58.830Z,56.58
2023-02-09T22:50:00.377Z,56.21
2023-02-09T22:53:01.945Z,56.66
2023-02-09T22:56:04.182Z,56.65
2023-02-09T22:59:05.692Z,56.72
2023-02-09T23:02:07.195Z,56.35
2023-02-09T23:05:08.878Z,56.71
2023-02-09T23:08:10.393Z,56.68
2023-02-09T23:11:15.140Z,56.54
2023-02-09T23:14:17.069Z,56.65
2023-02-09T23:17:18.846Z,56.72
2023-02-09T23:20:21.357Z,56.77
2023-02-09T23:23:22.845Z,56.94
2023-02-09T23:26:24.765Z,56.63
2023-02-09T23:29:26.715Z,56.70
2023-02-09T23:32:28.268Z,56.63
2023-02-09T23:35:29.738Z,56.65
2023-02-09T23:38:31.521Z,56.79
2023-02-09T23:41:33.946Z,56.54
2023-02-09T23:44:35.424Z,56.99
2023-02-09T23:47:36.912Z,56.66
2023-02-09T23:50:38.402Z,56.79
2023-02-09T23:53:39.939Z,56.49
2023-02-09T23:56:41.490Z,56.68
2023-02-09T23:59:42.969Z,56.68
